Slayden, Tennessee
Current Conditions -  °F | °C
As of 3:28 AM on Thursday 27 Nov 2014 (Local Time) from KCKV Reporting Station
Overcast Overcast  
Wind Chill: 28°   Ceiling: 3400
Heat Index: 36°   Visibility: 10mi
Dew Point: 32°   Wind: 13mph
Humidity: 86%   Direction: 320°NW
Pressure: 30.2"   Gusts: NA
Location:  36.29°N, 87.47°W
Report Text: KCKV 270928Z AUTO 32011KT 10SM SCT013 OVC034 02/00 A3020 RMK AO2 T00220000
Loading
Personal Weather Stations






























Interactive Weather Map New forecast layout! Learn more

10-Day Weather Forecast

Advertisements
Track Severe Weather on mobile